sensor_id;sensor_type;location;lat;lon;timestamp;temperature;humidity
58933;DHT22;44716;51.022;6.818;2024-03-02T00:01:39;21.10;63.30
58933;DHT22;44716;51.022;6.818;2024-03-02T00:04:05;21.00;63.50
58933;DHT22;44716;51.022;6.818;2024-03-02T00:06:32;21.00;63.60
58933;DHT22;44716;51.022;6.818;2024-03-02T00:08:58;20.90;63.60
58933;DHT22;44716;51.022;6.818;2024-03-02T00:11:24;20.90;63.90
58933;DHT22;44716;51.022;6.818;2024-03-02T00:13:52;20.90;63.90
58933;DHT22;44716;51.022;6.818;2024-03-02T00:16:17;20.80;63.90
58933;DHT22;44716;51.022;6.818;2024-03-02T00:18:43;20.80;63.80
58933;DHT22;44716;51.022;6.818;2024-03-02T00:21:09;20.80;63.90
58933;DHT22;44716;51.022;6.818;2024-03-02T00:23:35;20.80;63.90
58933;DHT22;44716;51.022;6.818;2024-03-02T00:26:00;20.80;63.90
58933;DHT22;44716;51.022;6.818;2024-03-02T00:30:55;20.80;63.90
58933;DHT22;44716;51.022;6.818;2024-03-02T00:33:22;20.80;63.80
58933;DHT22;44716;51.022;6.818;2024-03-02T00:35:49;20.80;64.50
58933;DHT22;44716;51.022;6.818;2024-03-02T00:38:15;20.80;63.70
58933;DHT22;44716;51.022;6.818;2024-03-02T00:40:44;20.80;63.60
58933;DHT22;44716;51.022;6.818;2024-03-02T00:45:44;20.80;63.50
58933;DHT22;44716;51.022;6.818;2024-03-02T00:48:09;20.80;63.50
58933;DHT22;44716;51.022;6.818;2024-03-02T00:50:35;20.80;63.50
58933;DHT22;44716;51.022;6.818;2024-03-02T00:53:01;20.80;63.50
58933;DHT22;44716;51.022;6.818;2024-03-02T00:55:27;20.80;63.50
58933;DHT22;44716;51.022;6.818;2024-03-02T00:57:52;20.80;63.50
58933;DHT22;44716;51.022;6.818;2024-03-02T01:00:18;20.80;63.50
58933;DHT22;44716;51.022;6.818;2024-03-02T01:02:43;20.80;63.50
58933;DHT22;44716;51.022;6.818;2024-03-02T01:05:10;20.80;63.60
58933;DHT22;44716;51.022;6.818;2024-03-02T01:07:37;20.80;63.50
58933;DHT22;44716;51.022;6.818;2024-03-02T01:10:03;20.70;63.50
58933;DHT22;44716;51.022;6.818;2024-03-02T01:12:28;20.70;63.60
58933;DHT22;44716;51.022;6.818;2024-03-02T01:14:54;20.70;63.70
58933;DHT22;44716;51.022;6.818;2024-03-02T01:17:19;20.70;63.70
58933;DHT22;44716;51.022;6.818;2024-03-02T01:19:45;20.70;63.70
58933;DHT22;44716;51.022;6.818;2024-03-02T01:22:10;20.70;63.80
58933;DHT22;44716;51.022;6.818;2024-03-02T01:24:36;20.60;63.70
58933;DHT22;44716;51.022;6.818;2024-03-02T01:27:01;20.60;63.70
58933;DHT22;44716;51.022;6.818;2024-03-02T01:29:27;20.60;63.70
58933;DHT22;44716;51.022;6.818;2024-03-02T01:31:52;20.60;63.70
58933;DHT22;44716;51.022;6.818;2024-03-02T01:34:18;20.60;63.60
58933;DHT22;44716;51.022;6.818;2024-03-02T01:36:44;20.60;63.70
58933;DHT22;44716;51.022;6.818;2024-03-02T01:39:09;20.60;63.70
58933;DHT22;44716;51.022;6.818;2024-03-02T01:41:35;20.60;63.80
58933;DHT22;44716;51.022;6.818;2024-03-02T01:44:01;20.60;63.70
58933;DHT22;44716;51.022;6.818;2024-03-02T01:46:26;20.60;63.70
58933;DHT22;44716;51.022;6.818;2024-03-02T01:48:52;20.60;63.70
58933;DHT22;44716;51.022;6.818;2024-03-02T01:51:17;20.60;63.70
58933;DHT22;44716;51.022;6.818;2024-03-02T01:53:43;20.60;63.70
58933;DHT22;44716;51.022;6.818;2024-03-02T01:56:08;20.50;63.70
58933;DHT22;44716;51.022;6.818;2024-03-02T01:58:34;20.60;63.70
58933;DHT22;44716;51.022;6.818;2024-03-02T02:00:59;20.60;63.70
58933;DHT22;44716;51.022;6.818;2024-03-02T02:03:25;20.60;63.70
58933;DHT22;44716;51.022;6.818;2024-03-02T02:05:50;20.60;63.80
58933;DHT22;44716;51.022;6.818;2024-03-02T02:08:16;20.50;63.70
58933;DHT22;44716;51.022;6.818;2024-03-02T02:10:42;20.50;63.80
58933;DHT22;44716;51.022;6.818;2024-03-02T02:13:07;20.60;63.90
58933;DHT22;44716;51.022;6.818;2024-03-02T02:15:33;20.50;63.80
58933;DHT22;44716;51.022;6.818;2024-03-02T02:18:01;20.50;63.80
58933;DHT22;44716;51.022;6.818;2024-03-02T02:20:27;20.50;63.90
58933;DHT22;44716;51.022;6.818;2024-03-02T02:25:21;20.50;63.90
58933;DHT22;44716;51.022;6.818;2024-03-02T02:27:46;20.50;63.90
58933;DHT22;44716;51.022;6.818;2024-03-02T02:30:12;20.50;64.00
58933;DHT22;44716;51.022;6.818;2024-03-02T02:32:37;20.50;64.00
58933;DHT22;44716;51.022;6.818;2024-03-02T02:35:03;20.50;64.80
58933;DHT22;44716;51.022;6.818;2024-03-02T02:37:29;20.50;64.00
58933;DHT22;44716;51.022;6.818;2024-03-02T02:39:54;20.40;63.90
58933;DHT22;44716;51.022;6.818;2024-03-02T02:42:20;20.50;63.90
58933;DHT22;44716;51.022;6.818;2024-03-02T02:44:45;20.50;63.90
58933;DHT22;44716;51.022;6.818;2024-03-02T02:47:11;20.50;63.90
58933;DHT22;44716;51.022;6.818;2024-03-02T02:49:36;20.40;63.90
58933;DHT22;44716;51.022;6.818;2024-03-02T02:52:02;20.40;64.00
58933;DHT22;44716;51.022;6.818;2024-03-02T02:54:28;20.40;63.90
58933;DHT22;44716;51.022;6.818;2024-03-02T02:56:53;20.50;64.00
58933;DHT22;44716;51.022;6.818;2024-03-02T02:59:19;20.40;63.90
58933;DHT22;44716;51.022;6.818;2024-03-02T03:01:44;20.40;63.90
58933;DHT22;44716;51.022;6.818;2024-03-02T03:04:10;20.40;63.90
58933;DHT22;44716;51.022;6.818;2024-03-02T03:06:35;20.40;63.90
58933;DHT22;44716;51.022;6.818;2024-03-02T03:09:01;20.40;64.00
58933;DHT22;44716;51.022;6.818;2024-03-02T03:11:27;20.40;63.90
58933;DHT22;44716;51.022;6.818;2024-03-02T03:13:52;20.40;64.00
58933;DHT22;44716;51.022;6.818;2024-03-02T03:16:19;20.40;64.10
58933;DHT22;44716;51.022;6.818;2024-03-02T03:18:45;20.40;64.10
58933;DHT22;44716;51.022;6.818;2024-03-02T03:21:10;20.40;64.10
58933;DHT22;44716;51.022;6.818;2024-03-02T03:23:36;20.40;64.00
58933;DHT22;44716;51.022;6.818;2024-03-02T03:26:01;20.40;64.00
58933;DHT22;44716;51.022;6.818;2024-03-02T03:28:27;20.40;63.90
58933;DHT22;44716;51.022;6.818;2024-03-02T03:30:52;20.40;63.90
58933;DHT22;44716;51.022;6.818;2024-03-02T03:33:18;20.40;63.90
58933;DHT22;44716;51.022;6.818;2024-03-02T03:35:43;20.40;63.80
58933;DHT22;44716;51.022;6.818;2024-03-02T03:38:09;20.30;63.80
58933;DHT22;44716;51.022;6.818;2024-03-02T03:40:34;20.30;63.90
58933;DHT22;44716;51.022;6.818;2024-03-02T03:42:59;20.30;63.90
58933;DHT22;44716;51.022;6.818;2024-03-02T03:45:25;20.30;63.90
58933;DHT22;44716;51.022;6.818;2024-03-02T03:47:52;20.30;63.90
58933;DHT22;44716;51.022;6.818;2024-03-02T03:50:18;20.30;63.90
58933;DHT22;44716;51.022;6.818;2024-03-02T03:52:43;20.30;63.70
58933;DHT22;44716;51.022;6.818;2024-03-02T03:55:09;20.30;63.80
58933;DHT22;44716;51.022;6.818;2024-03-02T03:57:35;20.40;63.70
58933;DHT22;44716;51.022;6.818;2024-03-02T04:00:01;20.40;63.70
58933;DHT22;44716;51.022;6.818;2024-03-02T04:02:26;20.40;63.60
58933;DHT22;44716;51.022;6.818;2024-03-02T04:04:52;20.40;63.50
58933;DHT22;44716;51.022;6.818;2024-03-02T04:07:17;20.40;63.50
58933;DHT22;44716;51.022;6.818;2024-03-02T04:09:43;20.40;63.50
58933;DHT22;44716;51.022;6.818;2024-03-02T04:12:08;20.40;63.60
58933;DHT22;44716;51.022;6.818;2024-03-02T04:14:34;20.30;63.70
58933;DHT22;44716;51.022;6.818;2024-03-02T04:16:59;20.30;63.70
58933;DHT22;44716;51.022;6.818;2024-03-02T04:19:25;20.30;63.70
58933;DHT22;44716;51.022;6.818;2024-03-02T04:21:50;20.30;64.50
58933;DHT22;44716;51.022;6.818;2024-03-02T04:24:16;20.30;63.70
58933;DHT22;44716;51.022;6.818;2024-03-02T04:26:41;20.30;63.50
58933;DHT22;44716;51.022;6.818;2024-03-02T04:29:07;20.30;63.70
58933;DHT22;44716;51.022;6.818;2024-03-02T04:31:33;20.30;63.70
58933;DHT22;44716;51.022;6.818;2024-03-02T04:33:58;20.30;63.70
58933;DHT22;44716;51.022;6.818;2024-03-02T04:36:24;20.30;63.60
58933;DHT22;44716;51.022;6.818;2024-03-02T04:38:49;20.20;63.60
58933;DHT22;44716;51.022;6.818;2024-03-02T04:41:15;20.20;63.60
58933;DHT22;44716;51.022;6.818;2024-03-02T04:43:40;20.20;63.60
58933;DHT22;44716;51.022;6.818;2024-03-02T04:46:06;20.20;63.60
58933;DHT22;44716;51.022;6.818;2024-03-02T04:48:32;20.30;63.50
58933;DHT22;44716;51.022;6.818;2024-03-02T04:50:58;20.30;63.50
58933;DHT22;44716;51.022;6.818;2024-03-02T04:53:23;20.20;63.50
58933;DHT22;44716;51.022;6.818;2024-03-02T04:55:48;20.30;63.60
58933;DHT22;44716;51.022;6.818;2024-03-02T04:58:43;20.30;63.50
58933;DHT22;44716;51.022;6.818;2024-03-02T05:01:08;20.30;63.40
58933;DHT22;44716;51.022;6.818;2024-03-02T05:03:34;20.30;63.30
58933;DHT22;44716;51.022;6.818;2024-03-02T05:06:00;20.20;63.40
58933;DHT22;44716;51.022;6.818;2024-03-02T05:08:25;20.30;63.50
58933;DHT22;44716;51.022;6.818;2024-03-02T05:10:51;20.30;63.50
58933;DHT22;44716;51.022;6.818;2024-03-02T05:13:16;20.20;63.40
58933;DHT22;44716;51.022;6.818;2024-03-02T05:15:42;20.30;63.50
58933;DHT22;44716;51.022;6.818;2024-03-02T05:18:08;20.20;63.50
58933;DHT22;44716;51.022;6.818;2024-03-02T05:20:34;20.20;63.50
58933;DHT22;44716;51.022;6.818;2024-03-02T05:22:59;20.30;63.40
58933;DHT22;44716;51.022;6.818;2024-03-02T05:25:25;20.20;63.40
58933;DHT22;44716;51.022;6.818;2024-03-02T05:27:50;20.20;63.30
58933;DHT22;44716;51.022;6.818;2024-03-02T05:30:16;20.30;63.40
58933;DHT22;44716;51.022;6.818;2024-03-02T05:32:42;20.20;63.30
58933;DHT22;44716;51.022;6.818;2024-03-02T05:35:07;20.20;63.20
58933;DHT22;44716;51.022;6.818;2024-03-02T05:37:33;20.30;63.20
58933;DHT22;44716;51.022;6.818;2024-03-02T05:39:59;20.20;63.30
58933;DHT22;44716;51.022;6.818;2024-03-02T05:42:24;20.30;63.20
58933;DHT22;44716;51.022;6.818;2024-03-02T05:44:50;20.20;63.20
58933;DHT22;44716;51.022;6.818;2024-03-02T05:47:15;20.20;63.50
58933;DHT22;44716;51.022;6.818;2024-03-02T05:49:41;20.10;63.70
58933;DHT22;44716;51.022;6.818;2024-03-02T05:52:06;20.20;64.70
58933;DHT22;44716;51.022;6.818;2024-03-02T05:54:32;20.20;63.90
58933;DHT22;44716;51.022;6.818;2024-03-02T05:56:57;20.20;64.00
58933;DHT22;44716;51.022;6.818;2024-03-02T05:59:41;20.20;64.00
58933;DHT22;44716;51.022;6.818;2024-03-02T06:02:07;20.30;64.30
58933;DHT22;44716;51.022;6.818;2024-03-02T06:04:32;20.30;64.60
58933;DHT22;44716;51.022;6.818;2024-03-02T06:06:58;20.30;64.40
58933;DHT22;44716;51.022;6.818;2024-03-02T06:09:23;20.30;64.30
58933;DHT22;44716;51.022;6.818;2024-03-02T06:11:50;20.30;64.20
58933;DHT22;44716;51.022;6.818;2024-03-02T06:14:15;20.30;64.40
58933;DHT22;44716;51.022;6.818;2024-03-02T06:16:40;20.30;64.40
58933;DHT22;44716;51.022;6.818;2024-03-02T06:19:06;20.20;64.40
58933;DHT22;44716;51.022;6.818;2024-03-02T06:21:32;20.20;64.40
58933;DHT22;44716;51.022;6.818;2024-03-02T06:23:57;20.30;64.40
58933;DHT22;44716;51.022;6.818;2024-03-02T06:26:23;20.20;64.30
58933;DHT22;44716;51.022;6.818;2024-03-02T06:28:49;20.20;64.40
58933;DHT22;44716;51.022;6.818;2024-03-02T06:31:14;20.30;64.40
58933;DHT22;44716;51.022;6.818;2024-03-02T06:33:40;20.30;64.40
58933;DHT22;44716;51.022;6.818;2024-03-02T06:36:06;20.20;64.40
58933;DHT22;44716;51.022;6.818;2024-03-02T06:38:37;20.30;64.40
58933;DHT22;44716;51.022;6.818;2024-03-02T06:41:02;20.20;64.40
58933;DHT22;44716;51.022;6.818;2024-03-02T06:43:28;20.20;64.40
58933;DHT22;44716;51.022;6.818;2024-03-02T06:45:53;20.30;64.50
58933;DHT22;44716;51.022;6.818;2024-03-02T06:48:19;20.30;64.50
58933;DHT22;44716;51.022;6.818;2024-03-02T06:50:48;20.20;64.40
58933;DHT22;44716;51.022;6.818;2024-03-02T06:53:14;20.30;64.60
58933;DHT22;44716;51.022;6.818;2024-03-02T06:55:46;20.20;64.40
58933;DHT22;44716;51.022;6.818;2024-03-02T06:58:14;20.30;64.40
58933;DHT22;44716;51.022;6.818;2024-03-02T07:00:43;20.30;64.40
58933;DHT22;44716;51.022;6.818;2024-03-02T07:03:09;20.30;64.40
58933;DHT22;44716;51.022;6.818;2024-03-02T07:05:34;20.30;64.40
58933;DHT22;44716;51.022;6.818;2024-03-02T07:08:00;20.20;64.30
58933;DHT22;44716;51.022;6.818;2024-03-02T07:10:26;20.30;64.60
58933;DHT22;44716;51.022;6.818;2024-03-02T07:12:52;20.30;64.80
58933;DHT22;44716;51.022;6.818;2024-03-02T07:15:17;20.30;64.30
58933;DHT22;44716;51.022;6.818;2024-03-02T07:17:52;20.30;65.10
58933;DHT22;44716;51.022;6.818;2024-03-02T07:20:17;20.30;64.40
58933;DHT22;44716;51.022;6.818;2024-03-02T07:22:43;20.30;64.60
58933;DHT22;44716;51.022;6.818;2024-03-02T07:25:08;20.30;64.50
58933;DHT22;44716;51.022;6.818;2024-03-02T07:27:34;20.30;64.50
58933;DHT22;44716;51.022;6.818;2024-03-02T07:30:01;20.30;64.80
58933;DHT22;44716;51.022;6.818;2024-03-02T07:32:27;20.30;64.70
58933;DHT22;44716;51.022;6.818;2024-03-02T07:34:53;20.30;64.70
58933;DHT22;44716;51.022;6.818;2024-03-02T07:37:18;20.20;65.60
58933;DHT22;44716;51.022;6.818;2024-03-02T07:39:44;20.20;64.70
58933;DHT22;44716;51.022;6.818;2024-03-02T07:42:10;20.20;64.80
58933;DHT22;44716;51.022;6.818;2024-03-02T07:44:35;20.20;64.90
58933;DHT22;44716;51.022;6.818;2024-03-02T07:47:01;20.20;64.70
58933;DHT22;44716;51.022;6.818;2024-03-02T07:49:27;20.20;64.80
58933;DHT22;44716;51.022;6.818;2024-03-02T07:51:52;20.20;64.80
58933;DHT22;44716;51.022;6.818;2024-03-02T07:54:18;20.20;64.80
58933;DHT22;44716;51.022;6.818;2024-03-02T07:56:44;20.20;64.80
58933;DHT22;44716;51.022;6.818;2024-03-02T07:59:10;20.20;64.70
58933;DHT22;44716;51.022;6.818;2024-03-02T08:01:35;20.20;64.70
58933;DHT22;44716;51.022;6.818;2024-03-02T08:04:01;20.30;64.60
58933;DHT22;44716;51.022;6.818;2024-03-02T08:06:29;20.30;64.70
58933;DHT22;44716;51.022;6.818;2024-03-02T08:08:54;20.40;64.40
58933;DHT22;44716;51.022;6.818;2024-03-02T08:11:20;20.30;64.30
58933;DHT22;44716;51.022;6.818;2024-03-02T08:13:46;20.30;64.40
58933;DHT22;44716;51.022;6.818;2024-03-02T08:16:11;20.30;64.60
58933;DHT22;44716;51.022;6.818;2024-03-02T08:18:37;20.30;64.50
58933;DHT22;44716;51.022;6.818;2024-03-02T08:21:02;20.30;64.40
58933;DHT22;44716;51.022;6.818;2024-03-02T08:23:28;20.30;64.60
58933;DHT22;44716;51.022;6.818;2024-03-02T08:25:54;20.30;64.60
58933;DHT22;44716;51.022;6.818;2024-03-02T08:28:19;20.30;64.50
58933;DHT22;44716;51.022;6.818;2024-03-02T08:30:45;20.40;64.40
58933;DHT22;44716;51.022;6.818;2024-03-02T08:33:10;20.40;64.20
58933;DHT22;44716;51.022;6.818;2024-03-02T08:35:36;20.40;64.20
58933;DHT22;44716;51.022;6.818;2024-03-02T08:38:02;20.40;64.20
58933;DHT22;44716;51.022;6.818;2024-03-02T08:40:28;20.40;64.20
58933;DHT22;44716;51.022;6.818;2024-03-02T08:42:53;20.40;64.30
58933;DHT22;44716;51.022;6.818;2024-03-02T08:45:19;20.40;64.40
58933;DHT22;44716;51.022;6.818;2024-03-02T08:47:45;20.40;64.50
58933;DHT22;44716;51.022;6.818;2024-03-02T08:50:11;20.40;64.40
58933;DHT22;44716;51.022;6.818;2024-03-02T08:52:37;20.50;64.40
58933;DHT22;44716;51.022;6.818;2024-03-02T08:55:02;20.50;64.30
58933;DHT22;44716;51.022;6.818;2024-03-02T08:57:28;20.50;64.30
58933;DHT22;44716;51.022;6.818;2024-03-02T08:59:53;20.50;64.30
58933;DHT22;44716;51.022;6.818;2024-03-02T09:02:18;20.50;64.80
58933;DHT22;44716;51.022;6.818;2024-03-02T09:04:44;20.60;64.60
58933;DHT22;44716;51.022;6.818;2024-03-02T09:07:09;20.60;64.40
58933;DHT22;44716;51.022;6.818;2024-03-02T09:09:35;20.70;64.40
58933;DHT22;44716;51.022;6.818;2024-03-02T09:12:01;20.70;64.60
58933;DHT22;44716;51.022;6.818;2024-03-02T09:14:26;20.80;64.20
58933;DHT22;44716;51.022;6.818;2024-03-02T09:16:52;20.80;64.10
58933;DHT22;44716;51.022;6.818;2024-03-02T09:19:17;20.80;64.40
58933;DHT22;44716;51.022;6.818;2024-03-02T09:21:44;20.80;65.00
58933;DHT22;44716;51.022;6.818;2024-03-02T09:24:09;20.80;64.70
58933;DHT22;44716;51.022;6.818;2024-03-02T09:26:35;20.90;64.60
58933;DHT22;44716;51.022;6.818;2024-03-02T09:29:01;21.00;64.80
58933;DHT22;44716;51.022;6.818;2024-03-02T09:31:26;20.90;63.90
58933;DHT22;44716;51.022;6.818;2024-03-02T09:33:52;20.90;63.60
58933;DHT22;44716;51.022;6.818;2024-03-02T09:36:17;20.90;63.60
58933;DHT22;44716;51.022;6.818;2024-03-02T09:38:43;20.80;63.70
58933;DHT22;44716;51.022;6.818;2024-03-02T09:41:09;20.80;63.70
58933;DHT22;44716;51.022;6.818;2024-03-02T09:43:34;20.80;63.80
58933;DHT22;44716;51.022;6.818;2024-03-02T09:46:00;20.80;63.70
58933;DHT22;44716;51.022;6.818;2024-03-02T09:48:26;20.80;63.90
58933;DHT22;44716;51.022;6.818;2024-03-02T09:50:51;20.80;63.90
58933;DHT22;44716;51.022;6.818;2024-03-02T09:53:17;20.70;63.90
58933;DHT22;44716;51.022;6.818;2024-03-02T09:55:47;20.70;63.80
58933;DHT22;44716;51.022;6.818;2024-03-02T09:58:12;20.70;64.80
58933;DHT22;44716;51.022;6.818;2024-03-02T10:00:38;20.80;63.90
58933;DHT22;44716;51.022;6.818;2024-03-02T10:03:03;20.80;63.90
58933;DHT22;44716;51.022;6.818;2024-03-02T10:05:30;20.70;63.90
58933;DHT22;44716;51.022;6.818;2024-03-02T10:07:59;20.70;63.90
58933;DHT22;44716;51.022;6.818;2024-03-02T10:10:33;20.70;64.00
58933;DHT22;44716;51.022;6.818;2024-03-02T10:13:06;20.70;64.10
58933;DHT22;44716;51.022;6.818;2024-03-02T10:15:32;20.70;64.10
58933;DHT22;44716;51.022;6.818;2024-03-02T10:17:57;20.70;64.00
58933;DHT22;44716;51.022;6.818;2024-03-02T10:22:49;20.70;64.10
58933;DHT22;44716;51.022;6.818;2024-03-02T10:25:36;20.60;64.10
58933;DHT22;44716;51.022;6.818;2024-03-02T10:28:00;20.60;64.10
58933;DHT22;44716;51.022;6.818;2024-03-02T10:30:26;20.70;64.10
58933;DHT22;44716;51.022;6.818;2024-03-02T10:32:55;20.70;64.00
58933;DHT22;44716;51.022;6.818;2024-03-02T10:35:24;20.70;63.90
58933;DHT22;44716;51.022;6.818;2024-03-02T10:37:51;20.70;63.70
58933;DHT22;44716;51.022;6.818;2024-03-02T10:40:17;20.70;63.70
58933;DHT22;44716;51.022;6.818;2024-03-02T10:42:43;20.70;63.70
58933;DHT22;44716;51.022;6.818;2024-03-02T10:45:10;20.70;63.70
58933;DHT22;44716;51.022;6.818;2024-03-02T10:47:37;20.70;63.70
58933;DHT22;44716;51.022;6.818;2024-03-02T10:50:04;20.70;63.70
58933;DHT22;44716;51.022;6.818;2024-03-02T10:52:31;20.70;63.70
58933;DHT22;44716;51.022;6.818;2024-03-02T10:54:57;20.70;63.70
58933;DHT22;44716;51.022;6.818;2024-03-02T10:57:22;20.70;63.70
58933;DHT22;44716;51.022;6.818;2024-03-02T10:59:52;20.70;63.90
58933;DHT22;44716;51.022;6.818;2024-03-02T11:02:17;20.70;64.00
58933;DHT22;44716;51.022;6.818;2024-03-02T11:04:45;20.70;63.80
58933;DHT22;44716;51.022;6.818;2024-03-02T11:07:13;20.70;63.80
58933;DHT22;44716;51.022;6.818;2024-03-02T11:09:41;20.70;63.90
58933;DHT22;44716;51.022;6.818;2024-03-02T11:12:12;20.70;63.90
58933;DHT22;44716;51.022;6.818;2024-03-02T11:14:42;20.70;63.90
58933;DHT22;44716;51.022;6.818;2024-03-02T11:17:08;20.70;63.80
58933;DHT22;44716;51.022;6.818;2024-03-02T11:19:34;20.70;63.70
58933;DHT22;44716;51.022;6.818;2024-03-02T11:22:02;20.70;63.70
58933;DHT22;44716;51.022;6.818;2024-03-02T11:24:28;20.70;63.60
58933;DHT22;44716;51.022;6.818;2024-03-02T11:26:58;20.80;63.50
58933;DHT22;44716;51.022;6.818;2024-03-02T11:32:01;20.80;63.40
58933;DHT22;44716;51.022;6.818;2024-03-02T11:34:30;20.80;63.30
58933;DHT22;44716;51.022;6.818;2024-03-02T11:36:56;20.80;63.30
58933;DHT22;44716;51.022;6.818;2024-03-02T11:39:22;20.90;63.40
58933;DHT22;44716;51.022;6.818;2024-03-02T11:41:47;20.90;63.30
58933;DHT22;44716;51.022;6.818;2024-03-02T11:44:14;20.90;63.30
58933;DHT22;44716;51.022;6.818;2024-03-02T11:46:40;20.90;63.30
58933;DHT22;44716;51.022;6.818;2024-03-02T11:49:05;20.90;63.30
58933;DHT22;44716;51.022;6.818;2024-03-02T11:51:32;20.90;63.30
58933;DHT22;44716;51.022;6.818;2024-03-02T11:53:58;20.90;63.20
58933;DHT22;44716;51.022;6.818;2024-03-02T11:56:25;20.80;63.30
58933;DHT22;44716;51.022;6.818;2024-03-02T11:58:52;20.80;63.40
58933;DHT22;44716;51.022;6.818;2024-03-02T12:01:18;20.90;63.20
58933;DHT22;44716;51.022;6.818;2024-03-02T12:03:45;20.90;63.30
58933;DHT22;44716;51.022;6.818;2024-03-02T12:06:11;20.90;63.30
58933;DHT22;44716;51.022;6.818;2024-03-02T12:08:38;20.90;63.20
58933;DHT22;44716;51.022;6.818;2024-03-02T12:11:03;20.90;63.20
58933;DHT22;44716;51.022;6.818;2024-03-02T12:13:29;20.90;63.30
58933;DHT22;44716;51.022;6.818;2024-03-02T12:15:54;20.90;63.20
58933;DHT22;44716;51.022;6.818;2024-03-02T12:18:21;20.90;63.10
58933;DHT22;44716;51.022;6.818;2024-03-02T12:20:48;20.90;63.10
58933;DHT22;44716;51.022;6.818;2024-03-02T12:23:13;20.90;63.20
58933;DHT22;44716;51.022;6.818;2024-03-02T12:25:39;20.90;63.20
58933;DHT22;44716;51.022;6.818;2024-03-02T12:28:05;20.90;63.10
58933;DHT22;44716;51.022;6.818;2024-03-02T12:30:31;20.90;63.00
58933;DHT22;44716;51.022;6.818;2024-03-02T12:32:58;20.90;63.10
58933;DHT22;44716;51.022;6.818;2024-03-02T12:35:24;20.90;63.20
58933;DHT22;44716;51.022;6.818;2024-03-02T12:37:51;20.90;63.10
58933;DHT22;44716;51.022;6.818;2024-03-02T12:40:17;20.90;63.20
58933;DHT22;44716;51.022;6.818;2024-03-02T12:42:47;20.90;63.10
58933;DHT22;44716;51.022;6.818;2024-03-02T12:45:13;20.90;63.20
58933;DHT22;44716;51.022;6.818;2024-03-02T12:47:40;20.90;63.10
58933;DHT22;44716;51.022;6.818;2024-03-02T12:50:06;20.90;63.00
58933;DHT22;44716;51.022;6.818;2024-03-02T12:52:31;20.90;63.10
58933;DHT22;44716;51.022;6.818;2024-03-02T12:54:58;20.90;63.00
58933;DHT22;44716;51.022;6.818;2024-03-02T12:57:25;21.00;63.00
58933;DHT22;44716;51.022;6.818;2024-03-02T12:59:51;21.00;63.00
58933;DHT22;44716;51.022;6.818;2024-03-02T13:02:17;21.00;62.80
58933;DHT22;44716;51.022;6.818;2024-03-02T13:04:42;21.00;62.80
58933;DHT22;44716;51.022;6.818;2024-03-02T13:07:08;21.00;62.80
58933;DHT22;44716;51.022;6.818;2024-03-02T13:09:33;21.00;62.80
58933;DHT22;44716;51.022;6.818;2024-03-02T13:12:00;21.00;62.80
58933;DHT22;44716;51.022;6.818;2024-03-02T13:14:25;21.00;62.90
58933;DHT22;44716;51.022;6.818;2024-03-02T13:16:51;21.00;62.80
58933;DHT22;44716;51.022;6.818;2024-03-02T13:19:18;21.00;62.80
58933;DHT22;44716;51.022;6.818;2024-03-02T13:21:44;21.00;62.80
58933;DHT22;44716;51.022;6.818;2024-03-02T13:24:10;21.00;62.80
58933;DHT22;44716;51.022;6.818;2024-03-02T13:26:35;21.00;62.80
58933;DHT22;44716;51.022;6.818;2024-03-02T13:29:01;21.00;62.80
58933;DHT22;44716;51.022;6.818;2024-03-02T13:31:26;21.00;62.80
58933;DHT22;44716;51.022;6.818;2024-03-02T13:33:52;21.00;62.80
58933;DHT22;44716;51.022;6.818;2024-03-02T13:36:17;21.00;62.60
58933;DHT22;44716;51.022;6.818;2024-03-02T13:38:44;21.10;62.60
58933;DHT22;44716;51.022;6.818;2024-03-02T13:41:10;21.10;63.30
58933;DHT22;44716;51.022;6.818;2024-03-02T13:43:37;21.10;62.60
58933;DHT22;44716;51.022;6.818;2024-03-02T13:46:04;21.10;62.60
58933;DHT22;44716;51.022;6.818;2024-03-02T13:48:29;21.10;62.50
58933;DHT22;44716;51.022;6.818;2024-03-02T13:50:56;21.10;62.30
58933;DHT22;44716;51.022;6.818;2024-03-02T13:53:21;21.10;62.30
58933;DHT22;44716;51.022;6.818;2024-03-02T13:55:47;21.10;62.30
58933;DHT22;44716;51.022;6.818;2024-03-02T13:58:13;21.20;62.40
58933;DHT22;44716;51.022;6.818;2024-03-02T14:00:39;21.20;62.30
58933;DHT22;44716;51.022;6.818;2024-03-02T14:03:07;21.10;62.30
58933;DHT22;44716;51.022;6.818;2024-03-02T14:05:33;21.20;62.30
58933;DHT22;44716;51.022;6.818;2024-03-02T14:07:58;21.20;62.30
58933;DHT22;44716;51.022;6.818;2024-03-02T14:10:26;21.20;62.30
58933;DHT22;44716;51.022;6.818;2024-03-02T14:12:53;21.20;62.30
58933;DHT22;44716;51.022;6.818;2024-03-02T14:15:20;21.20;62.20
58933;DHT22;44716;51.022;6.818;2024-03-02T14:17:46;21.20;62.30
58933;DHT22;44716;51.022;6.818;2024-03-02T14:20:11;21.20;62.40
58933;DHT22;44716;51.022;6.818;2024-03-02T14:22:38;21.20;62.30
58933;DHT22;44716;51.022;6.818;2024-03-02T14:25:05;21.20;62.40
58933;DHT22;44716;51.022;6.818;2024-03-02T14:27:31;21.10;62.30
58933;DHT22;44716;51.022;6.818;2024-03-02T14:29:57;21.20;62.50
58933;DHT22;44716;51.022;6.818;2024-03-02T14:32:22;21.10;62.30
58933;DHT22;44716;51.022;6.818;2024-03-02T14:34:48;21.10;62.50
58933;DHT22;44716;51.022;6.818;2024-03-02T14:37:14;21.10;62.50
58933;DHT22;44716;51.022;6.818;2024-03-02T14:39:40;21.10;62.60
58933;DHT22;44716;51.022;6.818;2024-03-02T14:42:05;21.10;62.60
58933;DHT22;44716;51.022;6.818;2024-03-02T14:44:32;21.10;62.80
58933;DHT22;44716;51.022;6.818;2024-03-02T14:46:57;21.10;62.70
58933;DHT22;44716;51.022;6.818;2024-03-02T14:49:24;21.10;62.60
58933;DHT22;44716;51.022;6.818;2024-03-02T14:51:51;21.10;62.70
58933;DHT22;44716;51.022;6.818;2024-03-02T14:54:17;21.10;62.60
58933;DHT22;44716;51.022;6.818;2024-03-02T14:56:43;21.10;62.60
58933;DHT22;44716;51.022;6.818;2024-03-02T14:59:08;21.10;62.70
58933;DHT22;44716;51.022;6.818;2024-03-02T15:01:35;21.10;62.80
58933;DHT22;44716;51.022;6.818;2024-03-02T15:04:00;21.10;62.90
58933;DHT22;44716;51.022;6.818;2024-03-02T15:06:26;21.10;62.90
58933;DHT22;44716;51.022;6.818;2024-03-02T15:08:51;21.00;63.00
58933;DHT22;44716;51.022;6.818;2024-03-02T15:11:19;21.00;63.00
58933;DHT22;44716;51.022;6.818;2024-03-02T15:13:45;21.10;63.00
58933;DHT22;44716;51.022;6.818;2024-03-02T15:16:10;21.10;62.90
58933;DHT22;44716;51.022;6.818;2024-03-02T15:18:36;21.10;63.00
58933;DHT22;44716;51.022;6.818;2024-03-02T15:21:01;21.10;62.80
58933;DHT22;44716;51.022;6.818;2024-03-02T15:23:27;21.10;62.70
58933;DHT22;44716;51.022;6.818;2024-03-02T15:25:55;21.20;62.60
58933;DHT22;44716;51.022;6.818;2024-03-02T15:28:20;21.20;62.50
58933;DHT22;44716;51.022;6.818;2024-03-02T15:30:46;21.30;62.50
58933;DHT22;44716;51.022;6.818;2024-03-02T15:33:11;21.30;62.30
58933;DHT22;44716;51.022;6.818;2024-03-02T15:35:37;21.20;62.30